Time;durP1;ratioP1;P1;durP2;ratioP2;P2;SDS_P1;SDS_P2;PMS_P1;PMS_P2;Temp;Humidity;BMP_temperature;BMP_pressure;BME280_temperature;BME280_humidity;BME280_pressure;Samples;Min_cycle;Max_cycle;Signal;HPM_P1;HPM_P2
2022/12/18 00:01:23;;;;;;;47.23;23.27;;;;;;;-1.13;80.88;101664.98;1473062;88;21741;-82
2022/12/18 00:03:51;;;;;;;49.98;26.30;;;;;;;-1.09;81.00;101665.74;1477988;88;21588;-82
2022/12/18 00:06:18;;;;;;;46.70;23.47;;;;;;;-1.10;81.18;101666.65;1478739;88;21296;-83
2022/12/18 00:08:45;;;;;;;53.67;24.93;;;;;;;-1.13;81.14;101671.48;1473064;88;21557;-84
2022/12/18 00:11:16;;;;;;;49.00;23.60;;;;;;;-1.11;81.06;101674.05;1469184;88;21624;-84
2022/12/18 00:13:43;;;;;;;43.20;20.43;;;;;;;-1.08;81.47;101678.70;1476727;88;21972;-84
2022/12/18 00:16:13;;;;;;;50.10;24.07;;;;;;;-1.06;81.33;101685.17;1474413;88;21363;-84
2022/12/18 00:18:40;;;;;;;41.20;20.53;;;;;;;-1.03;82.02;101688.53;1474500;88;22330;-83
2022/12/18 00:21:09;;;;;;;49.53;22.50;;;;;;;-1.03;81.14;101688.53;1474900;88;21480;-82
2022/12/18 00:23:37;;;;;;;50.00;22.67;;;;;;;-1.02;81.15;101693.28;1478415;88;21737;-84
2022/12/18 00:26:07;;;;;;;45.10;22.23;;;;;;;-1.04;80.72;101691.16;1470139;88;21609;-82
2022/12/18 00:28:33;;;;;;;44.20;21.83;;;;;;;-1.04;80.67;101697.20;1476412;88;22486;-84
2022/12/18 00:31:09;;;;;;;47.97;23.67;;;;;;;-1.09;80.47;101704.30;1475179;88;22016;-84
2022/12/18 00:33:36;;;;;;;49.60;22.63;;;;;;;-1.13;80.70;101706.55;1478259;88;21745;-84
2022/12/18 00:36:09;;;;;;;47.43;22.13;;;;;;;-1.16;80.97;101707.48;1484380;88;21749;-84
2022/12/18 00:38:36;;;;;;;50.37;23.30;;;;;;;-1.16;80.88;101722.23;1477514;88;21501;-84
2022/12/18 00:41:03;;;;;;;49.27;23.30;;;;;;;-1.24;80.75;101727.62;1476514;88;22374;-83
2022/12/18 00:43:29;;;;;;;52.40;24.40;;;;;;;-1.27;81.01;101732.89;1477935;88;21692;-84
2022/12/18 00:45:55;;;;;;;49.40;23.83;;;;;;;-1.34;81.00;101733.12;1471622;88;22306;-82
2022/12/18 00:48:22;;;;;;;46.60;21.47;;;;;;;-1.31;81.44;101738.23;1475838;88;21604;-85
2022/12/18 00:50:49;;;;;;;54.20;24.80;;;;;;;-1.36;81.35;101737.03;1475120;88;21669;-85
2022/12/18 00:53:16;;;;;;;48.60;22.90;;;;;;;-1.34;81.65;101743.50;1472315;88;22306;-85
2022/12/18 00:55:43;;;;;;;59.97;27.90;;;;;;;-1.37;81.77;101752.23;1473483;88;21828;-84
2022/12/18 00:58:11;;;;;;;52.77;26.00;;;;;;;-1.36;81.77;101752.17;1484902;88;21592;-83
2022/12/18 01:00:37;;;;;;;59.40;27.53;;;;;;;-1.37;81.83;101760.86;1477066;88;21506;-85
2022/12/18 01:03:05;;;;;;;59.17;27.37;;;;;;;-1.38;81.85;101763.06;1481125;88;21670;-85
2022/12/18 01:05:32;;;;;;;61.67;27.37;;;;;;;-1.42;81.29;101770.51;1474202;88;21610;-84
2022/12/18 01:07:59;;;;;;;62.65;28.47;;;;;;;-1.40;81.70;101772.63;1467053;88;21754;-84
2022/12/18 01:10:26;;;;;;;58.97;28.03;;;;;;;-1.38;81.82;101779.95;1477797;88;22479;-83
2022/12/18 01:12:52;;;;;;;55.50;28.03;;;;;;;-1.40;81.89;101786.91;1466620;88;22152;-83
2022/12/18 01:15:20;;;;;;;63.35;28.73;;;;;;;-1.40;82.03;101784.31;1477568;88;21617;-85
2022/12/18 01:17:47;;;;;;;56.47;26.00;;;;;;;-1.42;82.39;101778.30;1481724;88;21267;-84
2022/12/18 01:20:13;;;;;;;61.43;30.13;;;;;;;-1.49;82.53;101780.66;1467168;88;21484;-84
2022/12/18 01:22:39;;;;;;;71.10;31.33;;;;;;;-1.46;82.66;101784.92;1475567;88;21684;-84
2022/12/18 01:25:06;;;;;;;60.77;28.97;;;;;;;-1.47;82.66;101794.43;1467597;88;21542;-83
2022/12/18 01:27:34;;;;;;;59.50;28.67;;;;;;;-1.47;82.66;101793.58;1475059;88;21642;-85
2022/12/18 01:30:00;;;;;;;62.33;28.50;;;;;;;-1.53;82.97;101790.69;1482778;88;22267;-85
2022/12/18 01:32:28;;;;;;;70.10;29.80;;;;;;;-1.57;82.63;101796.86;1455636;88;21828;-85
2022/12/18 01:34:54;;;;;;;61.55;29.52;;;;;;;-1.64;82.62;101800.47;1452039;88;21407;-85
2022/12/18 01:37:20;;;;;;;66.93;30.53;;;;;;;-1.68;82.86;101804.89;1473440;88;21526;-85
2022/12/18 01:39:46;;;;;;;67.60;30.67;;;;;;;-1.74;83.18;101806.34;1469634;88;22871;-85
2022/12/18 01:42:16;;;;;;;61.97;27.73;;;;;;;-1.73;83.24;101807.19;1469418;88;21570;-84
2022/12/18 01:45:18;;;;;;;66.77;30.27;;;;;;;-1.78;83.60;101816.81;1467284;88;21371;-85
2022/12/18 01:47:55;;;;;;;62.53;28.95;;;;;;;-1.79;83.81;101814.66;1470292;88;22273;-79
2022/12/18 01:50:36;;;;;;;67.80;32.10;;;;;;;-1.83;84.17;101819.08;1470160;88;21406;-81
2022/12/18 01:53:12;;;;;;;68.95;32.23;;;;;;;-1.84;84.66;101819.98;1470370;88;21407;-81
2022/12/18 01:55:50;;;;;;;62.10;28.05;;;;;;;-1.88;84.76;101823.52;1473482;88;21385;-80
2022/12/18 01:58:18;;;;;;;67.50;31.23;;;;;;;-1.93;85.04;101822.75;1474098;88;22458;-81
2022/12/18 02:00:46;;;;;;;67.60;31.65;;;;;;;-1.95;85.04;101824.55;1470336;88;21444;-81
2022/12/18 02:03:12;;;;;;;73.83;32.70;;;;;;;-1.94;85.32;101831.44;1473889;88;21348;-82
2022/12/18 02:05:49;;;;;;;70.78;32.58;;;;;;;-1.96;85.51;101835.80;1466667;88;21438;-81
2022/12/18 02:08:35;;;;;;;64.67;31.27;;;;;;;-1.96;85.41;101842.28;1467912;88;22502;-81
2022/12/18 02:11:31;;;;;;;70.83;33.40;;;;;;;-1.97;85.37;101836.69;1470484;88;21325;-80
2022/12/18 02:14:05;;;;;;;78.85;36.05;;;;;;;-1.98;85.57;101845.38;1467965;88;22358;-81
2022/12/18 02:16:55;;;;;;;78.20;34.78;;;;;;;-1.99;85.88;101860.52;1473473;88;21458;-80
2022/12/18 02:19:59;;;;;;;79.67;33.10;;;;;;;-1.99;86.66;101854.47;1474190;88;21503;-81
2022/12/18 02:22:52;;;;;;;74.92;33.13;;;;;;;-1.99;86.14;101853.17;1475545;88;21490;-81
2022/12/18 02:25:36;;;;;;;78.70;33.28;;;;;;;-2.02;86.51;101851.50;1472884;88;22464;-81
2022/12/18 02:28:06;;;;;;;71.02;34.38;;;;;;;-2.06;86.54;101861.55;1475445;88;21436;-81
2022/12/18 02:30:35;;;;;;;80.62;37.17;;;;;;;-2.08;86.52;101859.41;1471787;88;21327;-81
2022/12/18 02:33:06;;;;;;;67.75;33.83;;;;;;;-2.10;86.71;101866.36;1476190;88;22280;-81
2022/12/18 02:35:35;;;;;;;66.33;29.72;;;;;;;-2.12;86.83;101863.82;1477432;88;21362;-81
2022/12/18 02:38:04;;;;;;;77.47;32.65;;;;;;;-2.16;87.38;101878.17;1460702;88;21631;-81
2022/12/18 02:40:31;;;;;;;78.05;38.63;;;;;;;-2.17;86.91;101879.06;1475760;88;21526;-81
2022/12/18 02:43:04;;;;;;;75.95;35.55;;;;;;;-2.17;86.79;101880.36;1468874;88;21341;-81
2022/12/18 02:45:31;;;;;;;74.75;35.23;;;;;;;-2.20;86.80;101888.20;1477090;88;21954;-84
2022/12/18 02:47:57;;;;;;;76.17;36.53;;;;;;;-2.20;87.02;101892.09;1487815;88;21495;-83
2022/12/18 02:50:37;;;;;;;78.45;35.70;;;;;;;-2.23;87.51;101896.05;1464394;88;21407;-83
2022/12/18 02:53:21;;;;;;;73.95;34.88;;;;;;;-2.28;87.69;101890.48;1478502;88;21583;-81
2022/12/18 02:56:05;;;;;;;74.22;32.95;;;;;;;-2.31;88.13;101891.84;1473668;88;22435;-81
2022/12/18 02:59:01;;;;;;;79.12;35.13;;;;;;;-2.31;88.48;101900.92;1473682;88;21667;-82
2022/12/18 03:01:53;;;;;;;83.45;37.80;;;;;;;-2.35;89.25;101904.47;1471048;88;21384;-82
2022/12/18 03:04:28;;;;;;;84.62;36.70;;;;;;;-2.36;88.42;101906.67;1470251;88;22271;-80
2022/12/18 03:06:58;;;;;;;79.53;36.00;;;;;;;-2.35;87.96;101903.18;1468141;88;21495;-83
2022/12/18 03:09:29;;;;;;;;;;;;;;;-2.35;87.73;101907.52;1477998;88;21398;-82
2022/12/18 03:14:47;;;;;;;84.10;39.05;;;;;;;-2.45;89.53;101923.66;1473955;88;21466;-82
2022/12/18 03:17:18;;;;;;;79.53;35.10;;;;;;;-2.50;89.17;101922.47;1466502;88;21510;-80
2022/12/18 03:19:46;;;;;;;85.42;37.85;;;;;;;-2.51;88.87;101923.78;1472888;88;21413;-82
2022/12/18 03:22:15;;;;;;;83.90;37.55;;;;;;;-2.53;89.66;101926.86;1476606;88;21282;-82
2022/12/18 03:24:42;;;;;;;85.70;39.20;;;;;;;-2.54;89.41;101932.91;1479011;88;21399;-82
2022/12/18 03:27:13;;;;;;;80.90;37.55;;;;;;;-2.55;90.05;101936.40;1474059;88;22258;-82
2022/12/18 03:29:44;;;;;;;83.27;38.30;;;;;;;-2.54;89.66;101943.28;1473399;88;21465;-84
2022/12/18 03:32:19;;;;;;;74.80;37.45;;;;;;;-2.55;89.30;101936.40;1476375;88;21495;-83
2022/12/18 03:34:49;;;;;;;81.47;36.20;;;;;;;-2.55;89.24;101936.40;1476263;88;21429;-83
2022/12/18 03:37:15;;;;;;;81.60;37.03;;;;;;;-2.57;89.11;101938.16;1481428;88;22265;-83
2022/12/18 03:39:41;;;;;;;83.75;35.52;;;;;;;-2.60;89.25;101945.98;1476217;88;21362;-84
2022/12/18 03:42:22;;;;;;;80.90;37.58;;;;;;;-2.62;89.06;101952.51;1475157;88;21370;-85
2022/12/18 03:45:11;;;;;;;81.57;37.73;;;;;;;-2.65;89.07;101959.01;1480474;88;21289;-82
2022/12/18 03:47:48;;;;;;;77.78;35.10;;;;;;;-2.66;89.34;101966.83;1472083;88;21481;-82
2022/12/18 03:50:37;;;;;;;80.45;39.13;;;;;;;-2.73;90.02;101972.12;1467143;88;21518;-82
2022/12/18 03:53:21;;;;;;;76.62;34.18;;;;;;;-2.76;89.95;101969.58;1474389;88;21443;-83
2022/12/18 03:55:49;;;;;;;84.83;39.65;;;;;;;-2.79;90.34;101978.70;1469291;88;21333;-83
2022/12/18 03:58:19;;;;;;;89.37;39.90;;;;;;;-2.82;90.66;101978.75;1477385;88;22347;-83
2022/12/18 04:00:48;;;;;;;80.20;41.42;;;;;;;-2.86;90.40;101979.66;1476987;88;21407;-85
2022/12/18 04:03:14;;;;;;;88.45;38.95;;;;;;;-2.87;90.97;101986.18;1474542;88;22155;-85
2022/12/18 04:05:43;;;;;;;90.97;41.53;;;;;;;-2.89;92.25;101988.78;1473978;88;21333;-81
2022/12/18 04:08:10;;;;;;;80.30;33.73;;;;;;;-2.93;92.15;101987.54;1479512;88;21414;-84
2022/12/18 04:10:36;;;;;;;78.45;35.05;;;;;;;-2.96;92.17;101993.66;1447324;88;21333;-84
2022/12/18 04:13:02;;;;;;;86.12;32.95;;;;;;;-2.96;91.69;101997.54;1478429;88;22242;-85
2022/12/18 04:15:29;;;;;;;81.08;33.98;;;;;;;-3.00;92.42;102001.03;1473646;88;21473;-84
2022/12/18 04:17:55;;;;;;;82.27;35.15;;;;;;;-2.98;92.32;102010.95;1477003;88;21488;-85
2022/12/18 04:20:21;;;;;;;72.22;30.32;;;;;;;-3.02;91.99;102010.55;1462034;88;21473;-85
2022/12/18 04:22:47;;;;;;;95.73;36.50;;;;;;;-3.07;91.44;102003.31;1475152;88;21385;-82
2022/12/18 04:25:14;;;;;;;90.42;39.60;;;;;;;-3.05;91.23;102005.42;1472551;88;21984;-82
2022/12/18 04:27:40;;;;;;;82.57;34.05;;;;;;;-3.01;91.19;102018.77;1473000;88;22508;-83
2022/12/18 04:30:08;;;;;;;92.05;38.08;;;;;;;-3.01;90.96;102023.50;1466633;88;21363;-83
2022/12/18 04:32:35;;;;;;;76.97;31.50;;;;;;;-2.99;90.53;102023.49;1475872;88;22519;-84
2022/12/18 04:35:01;;;;;;;77.75;33.70;;;;;;;-2.96;90.48;102021.70;1479425;88;21297;-84
2022/12/18 04:37:27;;;;;;;87.15;35.33;;;;;;;-2.98;90.33;102023.90;1475261;88;21326;-84
2022/12/18 04:39:53;;;;;;;97.40;38.53;;;;;;;-2.92;90.40;102025.10;1474490;88;21364;-83
2022/12/18 04:42:19;;;;;;;91.45;37.75;;;;;;;-2.91;90.24;102029.84;1480682;88;21400;-84
2022/12/18 04:44:45;;;;;;;84.23;35.77;;;;;;;-2.90;90.10;102031.13;1477165;88;21348;-85
2022/12/18 04:47:11;;;;;;;84.27;35.70;;;;;;;-2.90;89.87;102036.75;1473733;88;22888;-85
2022/12/18 04:49:37;;;;;;;92.95;38.05;;;;;;;-2.89;89.64;102041.89;1465467;88;22114;-85
2022/12/18 04:52:03;;;;;;;88.70;35.43;;;;;;;-2.89;89.21;102050.11;1474659;88;22273;-86
2022/12/18 04:54:29;;;;;;;86.45;37.58;;;;;;;-2.86;89.07;102049.63;1471965;88;21370;-84
2022/12/18 04:56:55;;;;;;;89.73;36.93;;;;;;;-2.82;89.01;102053.02;1474584;88;21319;-85
2022/12/18 04:59:21;;;;;;;95.42;37.13;;;;;;;-2.83;88.89;102060.38;1476840;88;21951;-85
2022/12/18 05:01:48;;;;;;;88.17;36.40;;;;;;;-2.86;88.58;102064.32;1438375;88;21400;-83
2022/12/18 05:04:15;;;;;;;97.80;39.73;;;;;;;-2.92;88.53;102070.44;1449237;88;21466;-83
2022/12/18 05:06:41;;;;;;;77.22;32.90;;;;;;;-2.95;88.52;102071.78;1469543;88;21297;-83
2022/12/18 05:09:07;;;;;;;104.07;41.55;;;;;;;-3.03;88.79;102069.73;1478687;88;21407;-84
2022/12/18 05:11:33;;;;;;;101.60;39.43;;;;;;;-3.04;88.92;102066.73;1476128;88;21356;-85
2022/12/18 05:14:00;;;;;;;99.43;40.43;;;;;;;-3.07;88.41;102068.92;1477450;88;21527;-83
2022/12/18 05:16:26;;;;;;;102.55;37.83;;;;;;;-3.01;88.45;102080.94;1486167;88;22221;-84
2022/12/18 05:18:52;;;;;;;95.62;37.13;;;;;;;-3.01;87.81;102082.23;1470529;88;21289;-82
2022/12/18 05:21:18;;;;;;;90.05;36.93;;;;;;;-3.05;86.95;102089.20;1475587;88;21901;-83
2022/12/18 05:23:45;;;;;;;105.17;38.60;;;;;;;-3.04;87.04;102088.75;1477909;88;21334;-83
2022/12/18 05:26:17;;;;;;;93.92;35.33;;;;;;;-3.04;87.08;102096.08;1475537;88;21848;-82
2022/12/18 05:28:43;;;;;;;;;;;;;;;-3.13;85.22;102103.12;1475772;88;21429;-83
2022/12/18 05:31:10;;;;;;;101.58;38.50;;;;;;;-3.20;85.34;102099.28;1476991;88;20839;-83
2022/12/18 05:33:36;;;;;;;97.55;38.90;;;;;;;-3.25;85.22;102107.98;1471078;88;21385;-84
2022/12/18 05:36:05;;;;;;;105.92;41.37;;;;;;;-3.29;85.66;102114.94;1484204;88;22272;-84
2022/12/18 05:38:35;;;;;;;85.12;31.82;;;;;;;-3.32;85.26;102124.48;1477753;88;22317;-86
2022/12/18 05:41:02;;;;;;;113.03;41.60;;;;;;;-3.38;84.54;102128.44;1451477;88;21554;-84
2022/12/18 05:43:29;;;;;;;105.40;38.88;;;;;;;-3.35;85.10;102126.66;1473016;88;21501;-85
2022/12/18 05:45:56;;;;;;;103.17;37.83;;;;;;;-3.40;84.59;102136.20;1483402;88;21578;-84
2022/12/18 05:48:23;;;;;;;107.45;38.08;;;;;;;-3.42;84.64;102141.86;1477049;88;21355;-85
2022/12/18 05:50:50;;;;;;;108.65;38.05;;;;;;;-3.48;84.78;102145.37;1462649;88;21347;-85
2022/12/18 05:53:19;;;;;;;102.92;41.10;;;;;;;-3.49;84.33;102154.44;1472694;88;21363;-86
2022/12/18 05:55:46;;;;;;;114.72;40.05;;;;;;;-3.49;84.35;102157.02;1467511;88;21415;-86
2022/12/18 05:58:14;;;;;;;101.60;38.80;;;;;;;-3.51;84.55;102159.64;1475587;88;21540;-86
2022/12/18 06:00:44;;;;;;;105.17;40.73;;;;;;;-3.50;84.38;102158.77;1480758;88;21318;-83
2022/12/18 06:03:12;;;;;;;106.75;41.68;;;;;;;-3.49;84.38;102158.31;1478074;88;21364;-83
2022/12/18 06:05:42;;;;;;;97.45;36.38;;;;;;;-3.49;84.53;102162.20;1486176;88;21393;-84
2022/12/18 06:08:10;;;;;;;91.28;32.13;;;;;;;-3.52;84.29;102166.12;1477720;88;22983;-84
2022/12/18 06:10:37;;;;;;;93.42;32.75;;;;;;;-3.51;84.52;102170.41;1473157;88;21554;-84
2022/12/18 06:13:04;;;;;;;96.37;32.10;;;;;;;-3.53;84.29;102163.12;1476315;88;21348;-84
2022/12/18 06:15:30;;;;;;;106.27;38.63;;;;;;;-3.58;84.31;102167.48;1469599;88;21474;-83
2022/12/18 06:17:58;;;;;;;100.85;37.03;;;;;;;-3.54;84.84;102173.03;1473896;88;21458;-85
2022/12/18 06:20:24;;;;;;;105.70;36.98;;;;;;;-3.58;84.21;102175.24;1469757;88;21622;-82
2022/12/18 06:22:50;;;;;;;102.10;36.48;;;;;;;-3.56;84.43;102179.97;1438260;88;21370;-85
2022/12/18 06:25:16;;;;;;;97.60;36.05;;;;;;;-3.65;84.01;102189.98;1454503;88;21393;-84
2022/12/18 06:27:43;;;;;;;96.28;35.98;;;;;;;-3.65;84.25;102193.42;1474693;88;21510;-84
2022/12/18 06:30:10;;;;;;;88.00;34.10;;;;;;;-3.60;84.27;102202.86;1471283;88;21429;-83
2022/12/18 06:32:37;;;;;;;88.47;34.45;;;;;;;-3.64;83.98;102204.62;1457099;88;21563;-84
2022/12/18 06:35:03;;;;;;;101.78;37.30;;;;;;;-3.57;84.50;102213.18;1469053;89;21348;-81
2022/12/18 06:37:32;;;;;;;92.12;36.05;;;;;;;-3.52;84.53;102214.00;1464081;88;22352;-80
2022/12/18 06:39:58;;;;;;;105.47;36.53;;;;;;;-3.53;84.42;102216.18;1469939;88;21436;-82
2022/12/18 06:42:25;;;;;;;95.85;34.18;;;;;;;-3.54;84.41;102217.92;1471635;88;21437;-82
2022/12/18 06:44:51;;;;;;;92.60;35.05;;;;;;;-3.62;83.39;102213.24;1481072;88;22272;-82
2022/12/18 06:47:17;;;;;;;92.33;32.73;;;;;;;-3.58;83.71;102212.77;1472876;88;21408;-83
2022/12/18 06:49:43;;;;;;;96.80;33.93;;;;;;;-3.54;83.77;102211.86;1472618;88;22040;-80
2022/12/18 06:52:09;;;;;;;96.78;34.88;;;;;;;-3.52;83.51;102219.18;1470039;88;21610;-83
2022/12/18 06:54:35;;;;;;;104.37;34.30;;;;;;;-3.52;83.27;102227.80;1475657;88;21347;-83
2022/12/18 06:57:01;;;;;;;103.90;37.53;;;;;;;-3.46;83.46;102232.91;1472514;88;21311;-83
2022/12/18 06:59:27;;;;;;;105.95;37.38;;;;;;;-3.37;84.09;102235.86;1476922;88;22518;-81
2022/12/18 07:01:53;;;;;;;102.30;36.25;;;;;;;-3.33;83.48;102240.59;1475874;88;21276;-81
2022/12/18 07:04:19;;;;;;;100.43;36.77;;;;;;;-3.29;84.27;102237.94;1474955;88;22227;-81
2022/12/18 07:06:46;;;;;;;99.60;35.13;;;;;;;-3.29;84.27;102237.94;1477148;88;21407;-81
2022/12/18 07:09:12;;;;;;;101.62;34.88;;;;;;;-3.22;83.54;102254.30;1476051;88;21702;-81
2022/12/18 07:11:38;;;;;;;113.53;38.03;;;;;;;-3.23;82.73;102260.33;1473862;88;21363;-82
2022/12/18 07:14:04;;;;;;;109.37;41.27;;;;;;;-3.24;83.16;102268.55;1477786;88;21400;-81
2022/12/18 07:16:30;;;;;;;104.63;39.25;;;;;;;-3.26;82.69;102269.43;1474812;88;22556;-81
2022/12/18 07:18:56;;;;;;;93.47;35.10;;;;;;;-3.25;82.60;102269.43;1479295;88;21467;-82
2022/12/18 07:21:24;;;;;;;100.33;35.85;;;;;;;-3.29;81.65;102272.90;1482262;88;21489;-83
2022/12/18 07:23:50;;;;;;;109.75;37.48;;;;;;;-3.20;82.49;102273.25;1479001;88;21392;-83
2022/12/18 07:26:20;;;;;;;93.78;29.98;;;;;;;-3.13;82.14;102283.99;1474808;88;21393;-80
2022/12/18 07:28:47;;;;;;;92.15;32.67;;;;;;;-3.13;81.43;102281.84;1468954;88;21660;-80
2022/12/18 07:31:17;;;;;;;102.72;35.33;;;;;;;-3.15;81.56;102292.64;1484164;88;21326;-81
2022/12/18 07:33:44;;;;;;;104.53;37.83;;;;;;;-3.11;81.54;102295.61;1473031;88;21348;-81
2022/12/18 07:36:11;;;;;;;99.90;35.20;;;;;;;-3.14;81.45;102292.61;1473259;88;21385;-80
2022/12/18 07:38:38;;;;;;;84.72;30.23;;;;;;;-3.25;81.01;102293.14;1477824;88;21356;-81
2022/12/18 07:41:13;;;;;;;91.00;32.67;;;;;;;-3.18;81.88;102291.80;1462062;88;22184;-80
2022/12/18 07:43:41;;;;;;;99.52;37.05;;;;;;;-3.20;81.23;102304.33;1465328;88;21547;-82
2022/12/18 07:46:09;;;;;;;101.55;35.90;;;;;;;-3.11;81.32;102313.30;1471726;88;21392;-82
2022/12/18 07:48:35;;;;;;;96.85;34.75;;;;;;;-2.99;81.52;102319.69;1471280;88;22286;-83
2022/12/18 07:51:04;;;;;;;80.22;31.07;;;;;;;-2.91;81.59;102323.92;1472107;88;21334;-81
2022/12/18 07:53:31;;;;;;;84.30;32.75;;;;;;;-2.89;80.10;102328.22;1455846;88;21488;-83
2022/12/18 07:56:00;;;;;;;93.15;32.10;;;;;;;-2.82;80.88;102332.48;1475702;88;21274;-81
2022/12/18 07:58:26;;;;;;;80.35;28.40;;;;;;;-2.84;80.20;102334.22;1472601;88;22205;-83
2022/12/18 08:00:52;;;;;;;95.67;33.67;;;;;;;-2.98;79.49;102334.79;1477476;88;21577;-84
2022/12/18 08:03:19;;;;;;;87.02;30.32;;;;;;;-2.85;80.78;102326.03;1481073;88;21489;-83
2022/12/18 08:05:46;;;;;;;82.22;32.83;;;;;;;-2.82;79.66;102333.78;1469367;88;21511;-83
2022/12/18 08:08:12;;;;;;;78.90;30.02;;;;;;;-2.76;79.54;102331.12;1465320;88;22552;-83
2022/12/18 08:10:39;;;;;;;81.30;33.25;;;;;;;-2.82;78.69;102333.78;1478040;88;21420;-81
2022/12/18 08:13:06;;;;;;;85.17;30.72;;;;;;;-2.69;79.50;102344.86;1467320;88;21363;-83
2022/12/18 08:15:32;;;;;;;83.05;32.98;;;;;;;-2.65;78.98;102346.98;1482000;88;21590;-82
2022/12/18 08:17:58;;;;;;;69.13;27.77;;;;;;;-2.75;77.62;102344.48;1472763;88;21437;-83
2022/12/18 08:20:24;;;;;;;75.47;26.17;;;;;;;-2.77;77.56;102347.97;1470441;88;21639;-83
2022/12/18 08:22:50;;;;;;;67.78;24.60;;;;;;;-2.68;78.16;102347.02;1478672;88;21378;-83
2022/12/18 08:25:16;;;;;;;79.55;29.02;;;;;;;-2.80;76.52;102349.30;1473684;88;21578;-82
2022/12/18 08:27:42;;;;;;;70.80;26.60;;;;;;;-2.67;77.55;102351.34;1474930;88;22249;-82
2022/12/18 08:30:11;;;;;;;74.50;29.30;;;;;;;-2.57;77.39;102349.91;1479749;88;21443;-84
2022/12/18 08:32:37;;;;;;;74.87;26.73;;;;;;;-2.57;76.62;102355.09;1471652;88;21422;-84
2022/12/18 08:35:03;;;;;;;73.62;25.00;;;;;;;-2.46;77.27;102365.80;1469395;88;21414;-82
2022/12/18 08:37:29;;;;;;;76.50;29.37;;;;;;;-2.46;75.85;102361.47;1474390;88;21348;-83
2022/12/18 08:39:55;;;;;;;68.13;28.57;;;;;;;-2.39;76.55;102370.88;1476743;88;21412;-86
2022/12/18 08:45:08;;;;;;;61.25;22.42;;;;;;;-2.37;75.84;102374.33;1476771;88;21632;-83
2022/12/18 08:47:33;;;;;;;64.53;27.10;;;;;;;-2.31;75.34;102373.39;1461174;88;22358;-81
2022/12/18 08:49:59;;;;;;;59.10;22.00;;;;;;;-2.25;74.68;102372.47;1480683;88;21873;-81
2022/12/18 08:52:26;;;;;;;71.03;27.97;;;;;;;-2.10;75.72;102372.27;1477854;88;21686;-90
2022/12/18 08:55:05;;;;;;;64.03;24.77;;;;;;;-2.10;75.72;102372.27;1454700;88;23019;-91
2022/12/18 08:57:34;;;;;;;65.00;25.62;;;;;;;-2.03;75.33;102374.38;1458274;88;21969;-92
2022/12/18 09:00:00;;;;;;;62.15;27.00;;;;;;;-1.98;74.87;102374.73;1471515;88;23100;-93
2022/12/18 09:02:27;;;;;;;60.47;24.97;;;;;;;-1.91;74.91;102382.84;1472017;88;21488;-93
2022/12/18 09:04:53;;;;;;;64.73;25.87;;;;;;;-1.86;74.75;102384.95;1477114;88;22883;-90
2022/12/18 09:11:24;;;;;;;70.60;26.70;;;;;;;-1.70;74.31;102397.27;1467892;88;22841;-93
2022/12/18 09:13:51;;;;;;;56.83;24.95;;;;;;;-1.65;73.66;102390.28;1475034;88;22071;-92
2022/12/18 09:16:20;;;;;;;72.23;28.57;;;;;;;-1.64;73.72;102390.72;1460866;88;21363;-91
2022/12/18 09:18:47;;;;;;;60.57;22.57;;;;;;;-1.54;73.59;102394.03;1475290;88;22268;-92
2022/12/18 09:21:19;;;;;;;46.23;17.13;;;;;;;-1.65;72.20;102394.62;1471750;88;21700;-92
2022/12/18 09:23:54;;;;;;;70.97;30.43;;;;;;;-1.79;71.27;102396.09;1454757;88;21603;-88
2022/12/18 09:26:22;;;;;;;50.30;20.53;;;;;;;-1.63;73.16;102397.62;1465922;88;21605;-89
2022/12/18 09:28:49;;;;;;;51.20;22.23;;;;;;;-1.73;71.64;102399.05;1379479;89;21489;-87
2022/12/18 09:31:17;;;;;;;55.00;22.90;;;;;;;-1.72;72.07;102405.54;1404033;88;21463;-92
2022/12/18 09:33:45;;;;;;;45.23;18.67;;;;;;;-1.71;71.41;102407.25;1473710;88;21587;-92
2022/12/18 09:36:15;;;;;;;45.47;18.27;;;;;;;-1.68;71.67;102407.20;1474088;88;21522;-91
2022/12/18 09:38:41;;;;;;;51.37;24.23;;;;;;;-1.84;70.52;102407.86;1475983;88;22489;-85
2022/12/18 09:41:49;;;;;;;49.97;21.63;;;;;;;-1.73;71.79;102410.73;1469974;88;21385;-92
2022/12/18 09:44:36;;;;;;;53.67;24.13;;;;;;;-1.42;71.91;102400.34;1472354;88;21691;-89
2022/12/18 09:47:16;;;;;;;54.73;24.23;;;;;;;-0.64;69.87;102407.75;1472171;88;21457;-93
2022/12/18 09:49:49;;;;;;;52.70;22.47;;;;;;;0.08;68.63;102405.05;1474149;88;21588;-92
2022/12/18 09:52:39;;;;;;;48.87;20.47;;;;;;;0.50;66.00;102399.37;1554853;88;21725;-92
2022/12/18 09:55:14;;;;;;;49.97;22.47;;;;;;;0.35;63.63;102407.09;1405656;88;22039;-90
2022/12/18 09:57:52;;;;;;;51.10;23.70;;;;;;;0.73;63.07;102404.50;1475154;88;22069;-91
2022/12/18 10:00:24;;;;;;;53.40;25.23;;;;;;;1.07;61.60;102411.92;1474386;88;22965;-92
2022/12/18 10:02:55;;;;;;;54.80;24.83;;;;;;;1.33;62.07;102414.31;1400227;88;21267;-91
2022/12/18 10:05:36;;;;;;;50.85;24.60;;;;;;;1.51;62.21;102412.97;1557580;88;21459;-92
2022/12/18 10:08:42;;;;;;;56.73;24.52;;;;;;;1.20;60.46;102411.15;1398159;88;21392;-88
2022/12/18 10:19:09;;;;;;;51.20;23.40;;;;;;;1.40;60.10;102399.34;1412042;88;21288;-90
2022/12/18 10:21:47;;;;;;;48.37;21.90;;;;;;;0.99;61.00;102403.42;1500533;89;21319;-92
2022/12/18 10:24:40;;;;;;;46.30;21.77;;;;;;;0.99;60.27;102403.42;1390286;88;21260;-89
2022/12/18 10:27:20;;;;;;;58.23;25.23;;;;;;;0.86;59.68;102404.18;1543005;88;22147;-89
2022/12/18 10:29:46;;;;;;;43.33;20.27;;;;;;;1.28;60.66;102399.22;1468744;88;21450;-90
2022/12/18 10:32:17;;;;;;;66.13;27.93;;;;;;;1.24;60.03;102397.15;1476657;88;21319;-89
2022/12/18 10:34:53;;;;;;;52.55;24.32;;;;;;;1.08;59.49;102404.49;1474444;88;21833;-89
2022/12/18 10:37:25;;;;;;;53.80;24.63;;;;;;;0.79;59.13;102398.69;1473251;88;21333;-91
2022/12/18 10:40:06;;;;;;;;;;;;;;;1.27;60.96;102402.28;1437730;88;21393;-90
2022/12/18 10:42:33;;;;;;;114.27;49.80;;;;;;;1.19;60.11;102404.23;1472267;88;20414;-90
2022/12/18 10:45:13;;;;;;;75.53;32.37;;;;;;;1.19;60.96;102393.80;1462575;88;21386;-86
2022/12/18 10:47:50;;;;;;;51.13;24.30;;;;;;;1.41;59.84;102398.44;1553315;88;21467;-87
2022/12/18 10:50:31;;;;;;;52.53;23.70;;;;;;;1.30;60.69;102396.98;1456807;88;21346;-90
2022/12/18 10:53:01;;;;;;;43.48;22.15;;;;;;;1.10;60.53;102396.64;1448531;88;21385;-90
2022/12/18 10:55:38;;;;;;;58.17;30.27;;;;;;;0.92;59.95;102398.38;1409461;88;22272;-90
2022/12/18 10:58:28;;;;;;;51.67;23.93;;;;;;;1.31;61.24;102396.08;1558959;88;21376;-91
2022/12/18 11:01:15;;;;;;;56.63;29.17;;;;;;;1.18;58.98;102393.82;1558927;88;21231;-88
2022/12/18 11:03:48;;;;;;;53.47;26.63;;;;;;;1.50;61.14;102394.31;1478013;88;21378;-91
2022/12/18 11:06:24;;;;;;;56.83;26.53;;;;;;;1.67;61.60;102401.23;1472249;88;21488;-91
2022/12/18 11:09:04;;;;;;;55.70;26.70;;;;;;;1.92;61.88;102400.52;1472549;88;21499;-91
2022/12/18 11:11:33;;;;;;;48.93;23.13;;;;;;;1.96;60.00;102401.72;1477075;88;21511;-90
2022/12/18 11:14:23;;;;;;;54.57;25.33;;;;;;;1.77;58.58;102397.45;1473447;88;21518;-90
2022/12/18 11:16:51;;;;;;;54.80;24.07;;;;;;;1.58;58.87;102399.73;1472812;88;21503;-87
2022/12/18 11:19:39;;;;;;;70.33;34.27;;;;;;;1.53;59.26;102398.98;1472964;88;21582;-89
2022/12/18 11:22:29;;;;;;;49.67;23.03;;;;;;;1.69;60.05;102400.72;1473030;88;22534;-83
2022/12/18 11:25:04;;;;;;;48.83;22.50;;;;;;;1.48;67.38;102402.62;1470416;88;21507;-83
2022/12/18 11:27:30;;;;;;;52.27;22.17;;;;;;;1.32;63.44;102405.64;1468579;88;21370;-82
2022/12/18 11:30:33;;;;;;;51.13;24.03;;;;;;;1.76;61.04;102400.12;1469435;88;21429;-83
2022/12/18 11:33:19;;;;;;;51.90;23.50;;;;;;;1.56;61.99;102408.49;1475001;88;21473;-83
2022/12/18 11:35:56;;;;;;;49.63;22.97;;;;;;;1.80;60.76;102399.97;1479058;88;21629;-82
2022/12/18 11:38:43;;;;;;;48.33;23.90;;;;;;;1.94;60.36;102401.34;1476722;88;21563;-79
2022/12/18 11:42:09;;;;;;;59.53;30.60;;;;;;;2.36;62.75;102403.58;1455270;88;21443;-83
2022/12/18 11:45:10;;;;;;;42.73;20.13;;;;;;;2.74;59.18;102398.48;1443169;90;22403;-81